createdAt,value
2022-11-28T00:01:00.295Z,45.00
2022-11-28T00:03:35.233Z,44.40
2022-11-28T00:06:10.275Z,46.20
2022-11-28T00:08:45.344Z,59.90
2022-11-28T00:11:20.247Z,46.60
2022-11-28T00:13:59.291Z,49.70
2022-11-28T00:16:34.410Z,58.70
2022-11-28T00:19:14.047Z,54.70
2022-11-28T00:21:48.921Z,55.20
2022-11-28T00:24:21.887Z,52.60
2022-11-28T00:26:54.976Z,50.20
2022-11-28T00:29:43.092Z,53.70
2022-11-28T00:32:17.976Z,55.10
2022-11-28T00:34:52.585Z,52.90
2022-11-28T00:37:27.542Z,53.80
2022-11-28T00:40:00.660Z,56.10
2022-11-28T00:42:39.392Z,59.30
2022-11-28T00:45:13.882Z,65.90
2022-11-28T00:48:00.170Z,57.50
2022-11-28T00:50:33.394Z,55.60
2022-11-28T00:53:08.097Z,51.90
2022-11-28T00:55:43.095Z,59.90
2022-11-28T00:58:18.062Z,52.40
2022-11-28T01:00:51.408Z,51.00
2022-11-28T01:03:24.374Z,56.30
2022-11-28T01:05:59.142Z,59.60
2022-11-28T01:08:33.795Z,51.50
2022-11-28T01:11:14.455Z,55.40
2022-11-28T01:13:47.350Z,50.20
2022-11-28T01:16:20.534Z,52.10
2022-11-28T01:18:55.364Z,53.10
2022-11-28T01:21:30.124Z,57.30
2022-11-28T01:24:03.175Z,53.10
2022-11-28T01:26:36.274Z,53.90
2022-11-28T01:29:11.875Z,51.10
2022-11-28T01:31:46.675Z,50.20
2022-11-28T01:34:21.676Z,48.60
2022-11-28T01:36:56.511Z,49.90
2022-11-28T01:39:29.493Z,49.10
2022-11-28T01:42:02.520Z,54.50
2022-11-28T01:44:35.684Z,53.00
2022-11-28T01:47:08.868Z,51.80
2022-11-28T01:49:42.576Z,57.20
2022-11-28T01:52:20.265Z,50.10
2022-11-28T01:54:59.261Z,49.40
2022-11-28T01:57:34.073Z,61.30
2022-11-28T02:00:17.378Z,47.10
2022-11-28T02:03:00.020Z,48.90
2022-11-28T02:05:33.608Z,48.80
2022-11-28T02:08:10.275Z,51.40
2022-11-28T02:10:59.949Z,51.60
2022-11-28T02:13:52.981Z,52.60
2022-11-28T02:16:34.809Z,47.20
2022-11-28T02:19:43.271Z,55.60
2022-11-28T02:22:23.474Z,49.90
2022-11-28T02:25:24.766Z,51.20
2022-11-28T02:28:30.016Z,51.30
2022-11-28T02:31:24.745Z,49.80
2022-11-28T02:34:01.604Z,57.40
2022-11-28T02:36:48.163Z,52.80
2022-11-28T02:40:00.798Z,52.30
2022-11-28T02:42:55.270Z,51.50
2022-11-28T02:48:40.026Z,50.80
2022-11-28T02:51:28.857Z,52.50
2022-11-28T02:53:58.910Z,56.10
2022-11-28T02:56:27.398Z,51.10
2022-11-28T02:58:55.938Z,52.00
2022-11-28T03:01:35.021Z,52.30
2022-11-28T03:04:09.339Z,51.80
2022-11-28T03:06:52.415Z,51.60
2022-11-28T03:09:32.768Z,52.90
2022-11-28T03:12:26.595Z,51.50
2022-11-28T03:15:06.748Z,50.90
2022-11-28T03:17:56.002Z,57.40
2022-11-28T03:20:53.333Z,51.50
2022-11-28T03:23:43.767Z,50.70
2022-11-28T03:26:27.022Z,52.70
2022-11-28T03:29:13.998Z,54.50
2022-11-28T03:31:57.861Z,55.70
2022-11-28T03:34:38.793Z,54.30
2022-11-28T03:37:20.805Z,51.90
2022-11-28T03:40:02.335Z,49.70
2022-11-28T03:42:41.884Z,52.00
2022-11-28T03:45:26.010Z,54.60
2022-11-28T03:50:53.519Z,54.80
2022-11-28T03:53:36.765Z,50.30
2022-11-28T03:56:39.281Z,54.10
2022-11-28T03:59:24.781Z,51.90
2022-11-28T04:02:12.684Z,51.20
2022-11-28T04:05:02.545Z,49.70
2022-11-28T04:07:51.033Z,51.30
2022-11-28T04:10:29.722Z,50.50
2022-11-28T04:13:20.587Z,50.80
2022-11-28T04:16:03.988Z,51.80
2022-11-28T04:19:02.369Z,52.60
2022-11-28T04:21:35.306Z,49.60
2022-11-28T04:24:32.202Z,51.40
2022-11-28T04:27:12.511Z,45.00
2022-11-28T04:30:03.532Z,57.20
2022-11-28T04:32:40.784Z,45.20
2022-11-28T04:35:32.488Z,48.80
2022-11-28T04:38:03.931Z,46.40
2022-11-28T04:40:38.781Z,46.00
2022-11-28T04:43:21.484Z,45.00
2022-11-28T04:46:05.516Z,46.80
2022-11-28T04:48:39.132Z,45.60
2022-11-28T04:51:23.567Z,44.30
2022-11-28T04:54:15.894Z,43.50
2022-11-28T04:57:14.791Z,53.50
2022-11-28T04:59:50.337Z,45.70
2022-11-28T05:02:26.567Z,41.80
2022-11-28T05:05:01.542Z,47.40
2022-11-28T05:07:36.368Z,44.60
2022-11-28T05:10:13.133Z,40.60
2022-11-28T05:12:48.022Z,46.10
2022-11-28T05:15:22.551Z,53.70
2022-11-28T05:17:57.628Z,47.30
2022-11-28T05:20:32.875Z,46.70
2022-11-28T05:23:20.965Z,46.80
2022-11-28T05:25:54.120Z,45.10
2022-11-28T05:28:27.220Z,47.40
2022-11-28T05:31:01.550Z,31.40
2022-11-28T05:33:34.755Z,46.20
2022-11-28T05:36:13.555Z,38.20
2022-11-28T05:38:48.642Z,46.20
2022-11-28T05:41:28.390Z,46.90
2022-11-28T05:43:58.538Z,45.40
2022-11-28T05:46:31.752Z,45.10
2022-11-28T05:49:04.891Z,33.40
2022-11-28T05:51:39.611Z,34.00
2022-11-28T05:54:12.313Z,46.40
2022-11-28T05:56:42.528Z,47.20
2022-11-28T05:59:14.727Z,42.40
2022-11-28T06:01:43.332Z,37.70
2022-11-28T06:04:12.134Z,43.70
2022-11-28T06:06:40.559Z,42.50
2022-11-28T06:09:09.022Z,42.40
2022-11-28T06:11:37.418Z,45.90
2022-11-28T06:14:11.199Z,40.60
2022-11-28T06:16:41.683Z,38.10
2022-11-28T06:19:13.742Z,38.30
2022-11-28T06:21:42.468Z,39.40
2022-11-28T06:24:11.259Z,38.90
2022-11-28T06:26:44.187Z,38.10
2022-11-28T06:29:17.270Z,38.10
2022-11-28T06:31:52.193Z,37.60
2022-11-28T06:34:21.301Z,35.00
2022-11-28T06:36:50.107Z,39.60
2022-11-28T06:39:18.660Z,35.10
2022-11-28T06:41:47.071Z,37.50
2022-11-28T06:44:16.626Z,34.10
2022-11-28T06:46:49.434Z,37.30
2022-11-28T06:49:23.784Z,38.60
2022-11-28T06:51:53.319Z,35.30
2022-11-28T06:54:22.348Z,35.10
2022-11-28T06:56:50.915Z,35.80
2022-11-28T06:59:19.454Z,33.50
2022-11-28T07:01:47.946Z,37.90
2022-11-28T07:04:16.821Z,40.90
2022-11-28T07:06:45.247Z,34.10
2022-11-28T07:09:13.885Z,33.30
2022-11-28T07:11:42.905Z,38.00
2022-11-28T07:14:11.727Z,37.70
2022-11-28T07:16:40.381Z,36.30
2022-11-28T07:19:11.373Z,36.00
2022-11-28T07:21:39.798Z,37.40
2022-11-28T07:24:08.745Z,33.10
2022-11-28T07:26:38.355Z,31.90
2022-11-28T07:29:07.755Z,34.40
2022-11-28T07:31:37.500Z,32.30
2022-11-28T07:34:06.320Z,29.60
2022-11-28T07:36:34.721Z,29.10
2022-11-28T07:39:05.417Z,24.70
2022-11-28T07:41:33.902Z,24.80
2022-11-28T07:44:03.944Z,29.80
2022-11-28T07:46:34.429Z,23.90
2022-11-28T07:49:04.635Z,27.70
2022-11-28T07:51:34.130Z,26.00
2022-11-28T07:54:04.170Z,22.50
2022-11-28T07:57:04.571Z,27.40
2022-11-28T07:59:24.287Z,26.70
2022-11-28T08:01:54.219Z,26.70
2022-11-28T08:04:23.371Z,25.70
2022-11-28T08:06:51.918Z,28.50
2022-11-28T08:09:20.433Z,31.50
2022-11-28T08:11:51.656Z,31.20
2022-11-28T08:14:20.675Z,29.50
2022-11-28T08:16:49.946Z,28.60
2022-11-28T08:19:22.955Z,28.60
2022-11-28T08:21:53.432Z,28.40
2022-11-28T08:24:21.879Z,27.20
2022-11-28T08:26:50.359Z,27.10
2022-11-28T08:29:18.847Z,28.90
2022-11-28T08:31:47.420Z,30.20
2022-11-28T08:34:15.986Z,29.90
2022-11-28T08:36:44.388Z,34.50
2022-11-28T08:39:28.281Z,32.30
2022-11-28T08:41:57.862Z,32.10
2022-11-28T08:44:30.322Z,35.40
2022-11-28T08:47:02.477Z,36.30
2022-11-28T08:49:31.124Z,36.60
2022-11-28T08:52:00.176Z,34.80
2022-11-28T08:54:28.936Z,46.80
2022-11-28T08:56:57.859Z,41.50
2022-11-28T08:59:26.355Z,30.90
2022-11-28T09:01:56.334Z,37.10
2022-11-28T09:04:24.794Z,35.30
2022-11-28T09:06:53.605Z,36.70
2022-11-28T09:09:22.285Z,36.80
2022-11-28T09:11:50.845Z,33.90
2022-11-28T09:14:19.264Z,32.80
2022-11-28T09:16:48.952Z,36.40
2022-11-28T09:19:17.435Z,35.50
2022-11-28T09:21:45.850Z,37.20
2022-11-28T09:24:16.911Z,34.90
2022-11-28T09:26:45.466Z,37.60
2022-11-28T09:29:14.016Z,34.40
2022-11-28T09:31:47.095Z,32.60
2022-11-28T09:36:44.764Z,32.60
2022-11-28T09:39:13.153Z,37.70
2022-11-28T09:41:54.719Z,35.50
2022-11-28T09:44:34.116Z,40.50
2022-11-28T09:47:20.069Z,39.10
2022-11-28T09:49:52.947Z,34.80
2022-11-28T09:52:35.737Z,23.00
2022-11-28T09:55:34.408Z,35.40
2022-11-28T09:58:19.473Z,38.20
2022-11-28T10:01:08.403Z,39.60
2022-11-28T10:04:03.406Z,35.70
2022-11-28T10:06:43.496Z,35.10
2022-11-28T10:09:30.745Z,36.50
2022-11-28T10:12:08.467Z,36.50
2022-11-28T10:15:00.366Z,39.90
2022-11-28T10:17:43.337Z,41.70
2022-11-28T10:20:18.214Z,53.30
2022-11-28T10:22:52.711Z,41.80
2022-11-28T10:25:44.528Z,40.90
2022-11-28T10:28:22.184Z,33.80
2022-11-28T10:31:04.735Z,41.70
2022-11-28T10:34:22.216Z,39.90
2022-11-28T10:37:15.029Z,40.20
2022-11-28T10:39:45.118Z,38.60
2022-11-28T10:42:24.212Z,38.30
2022-11-28T10:45:20.190Z,35.30
2022-11-28T10:51:12.865Z,34.10
2022-11-28T10:54:09.967Z,37.30
2022-11-28T10:56:59.554Z,35.60
2022-11-28T10:59:37.715Z,34.90
2022-11-28T11:02:57.001Z,38.10
2022-11-28T11:05:28.447Z,41.00
2022-11-28T11:08:02.797Z,36.40
2022-11-28T11:10:56.812Z,37.70
2022-11-28T11:13:30.805Z,37.00
2022-11-28T11:18:41.557Z,36.20
2022-11-28T11:21:20.080Z,38.20
2022-11-28T11:23:50.404Z,39.50
2022-11-28T11:26:21.757Z,36.60
2022-11-28T11:28:51.393Z,37.40
2022-11-28T11:31:30.339Z,34.10
2022-11-28T11:34:05.153Z,29.60
2022-11-28T11:36:36.007Z,34.10
2022-11-28T11:39:08.418Z,39.60
2022-11-28T11:41:38.661Z,37.00
2022-11-28T11:44:15.938Z,33.50
2022-11-28T11:46:52.307Z,35.10
2022-11-28T11:49:40.620Z,33.60
2022-11-28T11:52:13.150Z,37.60
2022-11-28T11:54:47.496Z,38.90
2022-11-28T11:57:32.714Z,36.30
2022-11-28T12:00:19.690Z,36.10
2022-11-28T12:02:59.517Z,36.30
2022-11-28T12:06:12.244Z,41.20
2022-11-28T12:11:15.009Z,43.90
2022-11-28T12:13:43.622Z,39.70
2022-11-28T12:16:34.000Z,40.80
2022-11-28T12:19:32.345Z,38.50
2022-11-28T12:22:08.802Z,43.00
2022-11-28T12:25:03.067Z,42.00
2022-11-28T12:27:50.101Z,40.00
2022-11-28T12:30:44.928Z,40.60
2022-11-28T12:33:31.496Z,39.60
2022-11-28T12:36:18.620Z,38.60
2022-11-28T12:39:06.269Z,42.60
2022-11-28T12:41:54.183Z,39.90
2022-11-28T12:44:33.135Z,36.20
2022-11-28T12:47:32.400Z,42.80
2022-11-28T12:50:22.721Z,40.10
2022-11-28T12:53:18.693Z,39.80
2022-11-28T12:56:05.119Z,35.00
2022-11-28T12:58:54.338Z,35.20
2022-11-28T13:01:28.784Z,37.20
2022-11-28T13:04:14.352Z,35.60
2022-11-28T13:06:57.869Z,35.80
2022-11-28T13:09:50.923Z,36.60
2022-11-28T13:12:44.056Z,37.50
2022-11-28T13:15:39.206Z,36.80
2022-11-28T13:18:38.208Z,37.50
2022-11-28T13:21:19.104Z,38.10
2022-11-28T13:24:03.751Z,36.90
2022-11-28T13:26:52.530Z,37.40
2022-11-28T13:30:13.507Z,38.00
2022-11-28T13:33:11.551Z,41.20
2022-11-28T13:35:47.266Z,38.30
2022-11-28T13:39:12.731Z,43.80
2022-11-28T13:47:53.740Z,41.20
2022-11-28T13:50:36.293Z,39.80
2022-11-28T13:53:07.845Z,41.40
2022-11-28T13:55:50.614Z,52.20
2022-11-28T13:58:31.858Z,42.80
2022-11-28T14:01:12.513Z,52.90
2022-11-28T14:03:54.100Z,44.40
2022-11-28T14:06:40.479Z,44.20
2022-11-28T14:09:13.193Z,37.10
2022-11-28T14:12:07.746Z,43.50
2022-11-28T14:15:21.657Z,39.90
2022-11-28T14:18:55.805Z,31.10
2022-11-28T14:21:54.414Z,37.00
2022-11-28T14:24:47.464Z,41.30
2022-11-28T14:27:27.072Z,42.60
2022-11-28T14:30:02.058Z,38.00
2022-11-28T14:32:36.055Z,51.50
2022-11-28T14:37:59.816Z,51.50
2022-11-28T14:40:50.492Z,46.20
2022-11-28T14:43:30.792Z,45.70
2022-11-28T14:46:25.743Z,36.00
2022-11-28T14:49:00.462Z,43.00
2022-11-28T14:51:47.791Z,37.80
2022-11-28T14:54:22.352Z,37.30
2022-11-28T14:56:58.244Z,42.10
2022-11-28T14:59:34.561Z,42.50
2022-11-28T15:02:32.267Z,45.90
2022-11-28T15:05:30.523Z,44.30
2022-11-28T15:08:11.265Z,40.50
2022-11-28T15:10:58.773Z,41.20
2022-11-28T15:13:54.542Z,38.90
2022-11-28T15:16:24.371Z,43.50
2022-11-28T15:19:06.437Z,37.20
2022-11-28T15:21:45.124Z,39.90
2022-11-28T15:24:37.687Z,41.80
2022-11-28T15:27:08.943Z,44.40
2022-11-28T15:29:37.570Z,36.40
2022-11-28T15:32:06.560Z,43.20
2022-11-28T15:34:38.083Z,39.30
2022-11-28T15:37:15.740Z,39.50
2022-11-28T15:39:48.391Z,38.80
2022-11-28T15:42:27.186Z,48.50
2022-11-28T15:45:35.708Z,36.80
2022-11-28T15:48:07.807Z,39.90
2022-11-28T15:50:36.630Z,41.50
2022-11-28T15:53:17.877Z,38.90
2022-11-28T15:55:46.912Z,43.70
2022-11-28T15:58:30.991Z,41.50
2022-11-28T16:01:10.071Z,36.50
2022-11-28T16:04:02.550Z,44.30
2022-11-28T16:06:34.519Z,44.10
2022-11-28T16:09:07.326Z,44.70
2022-11-28T16:11:37.108Z,43.10
2022-11-28T16:14:11.489Z,45.80
2022-11-28T16:16:40.683Z,43.10
2022-11-28T16:19:32.373Z,44.50
2022-11-28T16:22:04.737Z,35.90
2022-11-28T16:24:44.887Z,39.70
2022-11-28T16:27:37.870Z,42.40
2022-11-28T16:30:32.130Z,41.40
2022-11-28T16:33:01.852Z,42.10
2022-11-28T16:35:41.667Z,38.00
2022-11-28T16:38:23.912Z,41.60
2022-11-28T16:41:03.452Z,38.30
2022-11-28T16:43:39.768Z,36.80
2022-11-28T16:46:23.429Z,33.80
2022-11-28T16:48:58.803Z,38.20
2022-11-28T16:51:41.578Z,39.60
2022-11-28T16:54:30.065Z,37.00
2022-11-28T16:57:14.989Z,36.90
2022-11-28T16:59:45.857Z,39.10
2022-11-28T17:02:23.526Z,41.30
2022-11-28T17:04:55.306Z,36.80
2022-11-28T17:07:25.425Z,36.00
2022-11-28T17:09:55.017Z,30.70
2022-11-28T17:12:24.374Z,39.00
2022-11-28T17:14:53.552Z,43.20
2022-11-28T17:17:24.349Z,44.00
2022-11-28T17:19:53.994Z,42.80
2022-11-28T17:22:40.967Z,40.90
2022-11-28T17:25:21.555Z,46.40
2022-11-28T17:27:51.145Z,40.50
2022-11-28T17:30:21.862Z,36.90
2022-11-28T17:32:53.594Z,38.40
2022-11-28T17:35:25.553Z,35.30
2022-11-28T17:37:55.617Z,32.50
2022-11-28T17:40:34.005Z,38.40
2022-11-28T17:43:05.741Z,41.20
2022-11-28T17:45:38.378Z,44.80
2022-11-28T17:50:45.771Z,42.40
2022-11-28T17:53:19.609Z,38.10
2022-11-28T17:56:00.623Z,38.00
2022-11-28T17:58:31.921Z,34.50
2022-11-28T18:01:02.180Z,40.40
2022-11-28T18:03:31.790Z,38.00
2022-11-28T18:06:01.725Z,37.30
2022-11-28T18:08:31.107Z,35.00
2022-11-28T18:11:09.790Z,45.30
2022-11-28T18:13:43.414Z,36.20
2022-11-28T18:16:15.500Z,40.40
2022-11-28T18:18:44.882Z,53.40
2022-11-28T18:21:19.167Z,40.70
2022-11-28T18:23:51.371Z,42.40
2022-11-28T18:26:28.101Z,42.60
2022-11-28T18:28:58.393Z,46.40
2022-11-28T18:31:30.100Z,37.50
2022-11-28T18:34:04.789Z,39.50
2022-11-28T18:36:36.614Z,41.20
2022-11-28T18:39:09.366Z,40.00
2022-11-28T18:41:40.905Z,37.80
2022-11-28T18:44:12.174Z,39.00
2022-11-28T18:46:41.737Z,42.30
2022-11-28T18:49:12.858Z,40.60
2022-11-28T18:51:43.046Z,42.30
2022-11-28T18:54:17.643Z,44.30
2022-11-28T18:56:50.520Z,37.70
2022-11-28T18:59:21.032Z,42.40
2022-11-28T19:01:50.934Z,48.20
2022-11-28T19:04:21.598Z,36.70
2022-11-28T19:06:50.864Z,37.30
2022-11-28T19:09:19.660Z,37.60
2022-11-28T19:11:50.167Z,38.00
2022-11-28T19:14:22.068Z,37.20
2022-11-28T19:16:54.918Z,44.90
2022-11-28T19:19:25.096Z,45.00
2022-11-28T19:21:55.683Z,42.70
2022-11-28T19:24:27.495Z,39.30
2022-11-28T19:26:58.692Z,40.20
2022-11-28T19:29:30.467Z,40.70
2022-11-28T19:32:01.717Z,40.90
2022-11-28T19:34:33.228Z,43.80
2022-11-28T19:37:04.149Z,40.90
2022-11-28T19:39:34.717Z,42.50
2022-11-28T19:42:07.993Z,46.50
2022-11-28T19:44:38.219Z,40.10
2022-11-28T19:47:10.939Z,41.10
2022-11-28T19:49:43.101Z,45.40
2022-11-28T19:52:12.786Z,40.80
2022-11-28T19:54:43.356Z,43.80
2022-11-28T19:57:17.753Z,38.10
2022-11-28T20:02:26.404Z,44.90
2022-11-28T20:04:56.832Z,44.90
2022-11-28T20:07:26.175Z,42.10
2022-11-28T20:10:00.246Z,42.70
2022-11-28T20:12:30.269Z,37.20
2022-11-28T20:14:59.774Z,43.90
2022-11-28T20:17:29.672Z,42.50
2022-11-28T20:19:59.374Z,41.90
2022-11-28T20:22:32.149Z,42.90
2022-11-28T20:25:02.133Z,44.70
2022-11-28T20:27:31.669Z,45.30
2022-11-28T20:30:07.048Z,43.40
2022-11-28T20:32:39.174Z,41.00
2022-11-28T20:35:09.802Z,42.70
2022-11-28T20:37:40.673Z,45.00
2022-11-28T20:40:10.711Z,41.90
2022-11-28T20:42:40.532Z,37.10
2022-11-28T20:45:10.905Z,41.80
2022-11-28T20:47:49.697Z,41.40
2022-11-28T20:50:20.853Z,42.20
2022-11-28T20:52:50.778Z,32.90
2022-11-28T20:55:21.151Z,34.30
2022-11-28T20:57:51.240Z,36.80
2022-11-28T21:00:26.351Z,38.80
2022-11-28T21:02:56.793Z,34.80
2022-11-28T21:05:26.289Z,37.20
2022-11-28T21:07:55.357Z,38.90
2022-11-28T21:10:25.265Z,40.70
2022-11-28T21:12:54.139Z,37.80
2022-11-28T21:15:23.148Z,37.10
2022-11-28T21:17:51.871Z,35.60
2022-11-28T21:20:20.224Z,32.40
2022-11-28T21:22:48.655Z,35.00
2022-11-28T21:25:18.026Z,35.60
2022-11-28T21:27:46.702Z,33.00
2022-11-28T21:30:15.522Z,34.70
2022-11-28T21:32:44.001Z,32.90
2022-11-28T21:35:12.412Z,33.20
2022-11-28T21:37:40.780Z,36.30
2022-11-28T21:40:09.837Z,34.40
2022-11-28T21:42:38.260Z,35.70
2022-11-28T21:45:07.074Z,33.90
2022-11-28T21:47:36.601Z,36.80
2022-11-28T21:50:05.446Z,30.90
2022-11-28T21:52:33.797Z,28.70
2022-11-28T21:55:02.164Z,29.10
2022-11-28T21:57:30.459Z,35.70
2022-11-28T21:59:59.237Z,38.20
2022-11-28T22:02:31.003Z,34.00
2022-11-28T22:05:00.367Z,33.30
2022-11-28T22:07:28.770Z,34.10
2022-11-28T22:09:57.150Z,38.80
2022-11-28T22:12:25.472Z,33.70
2022-11-28T22:14:53.827Z,32.60
2022-11-28T22:17:22.181Z,28.00
2022-11-28T22:19:52.052Z,30.90
2022-11-28T22:22:20.473Z,31.80
2022-11-28T22:24:48.853Z,33.80
2022-11-28T22:27:17.577Z,35.20
2022-11-28T22:29:46.454Z,32.80
2022-11-28T22:32:16.700Z,33.10
2022-11-28T22:34:45.543Z,32.00
2022-11-28T22:37:14.549Z,31.50
2022-11-28T22:39:43.147Z,33.30
2022-11-28T22:42:11.600Z,29.60
2022-11-28T22:44:40.053Z,31.90
2022-11-28T22:47:08.544Z,33.60
2022-11-28T22:49:36.947Z,31.10
2022-11-28T22:52:05.461Z,31.10
2022-11-28T22:54:34.113Z,25.20
2022-11-28T22:57:02.405Z,28.20
2022-11-28T22:59:33.932Z,30.40
2022-11-28T23:02:03.568Z,30.60
2022-11-28T23:04:32.124Z,24.00
2022-11-28T23:07:00.567Z,30.10
2022-11-28T23:09:29.016Z,34.80
2022-11-28T23:11:57.380Z,30.30
2022-11-28T23:14:25.925Z,28.00
2022-11-28T23:16:54.466Z,27.50
2022-11-28T23:19:22.930Z,27.30
2022-11-28T23:21:51.428Z,29.90
2022-11-28T23:24:21.833Z,27.50
2022-11-28T23:26:52.223Z,25.30
2022-11-28T23:29:21.498Z,26.70
2022-11-28T23:31:49.960Z,27.00
2022-11-28T23:34:18.451Z,25.20
2022-11-28T23:36:47.397Z,25.70
2022-11-28T23:39:18.873Z,29.40
2022-11-28T23:41:48.053Z,26.40
2022-11-28T23:44:18.339Z,27.70
2022-11-28T23:46:49.709Z,25.60
2022-11-28T23:49:18.015Z,31.60
2022-11-28T23:51:46.475Z,25.70
2022-11-28T23:54:15.094Z,25.90
2022-11-28T23:56:43.939Z,27.90
2022-11-28T23:59:13.572Z,27.70
